Pagina principale
METAR-TAF:

METAR-TAF

Aeroporti :

Aeroporto di Cefalonia

Cefalonia, Grecia

latitudine: 38-07N, longitudine: 020-30E, altezza: 19 m

Osservazione

Il bollettino è stato emesso 1 ora e 6 minuti fa, alle 12:50 UTC
Vento 5 kt da ovest
Temperature 15°C
Umidità 59%
Pressione 1021 hPa
Visibilità 10 km o più
Nubi sparse ad un'altezza di 1800 ft

METAR: LGKF 171250Z 27005KT 9999 SCT018 15/07 Q1021

Ora: 15:56 (13:56 UTC)

Previsione

Il bollettino è stato emesso 2 ore e 56 minuti fa, alle 11:00 UTC
Previsione valida dal 17 alle 12 UTC al 17 alle 21 UTC
Vento 9 kt da ovest
Visibilità 10 km o più
Nubi sparse ad un'altezza di 1800 ft

TAF: LGKF 171100Z 1712/1721 28009KT 9999 SCT018

Osservazioni e previsioni meteorologiche di più di 4000 aeroporti (messaggi METAR e TAF).

Le stazioni disponibili sono rappresentate dai dischi gialli e rossi sulla carta.

Puntare il mouse per vedere il nome della stazione.

Clicca sopra per visualizzare le osservazioni e previsioni meteorologiche.

Per cambiare la mappa : fare clic sui pulsanti verdi con una croce nera per ingrandire, il pulsante verde con un trattino per diminuire, o sulla freccia verde per le mappe adiacenti.


METAR-TAF: